Archival Weather

Republic

Farmingdale, New York (KFRG)

Report from: Wednesday, January 24, 2024 10:43 PM EST
Current time: Monday, June 17, 2024 3:08 AM EDT

Current weather – Weather history – Daily summaries
Weather forecast

Present weatherMist
Temperature7.8°C (46.0°F)
Wind chill6.6°C (43.8°F)
Dew point7.2°C (45.0°F)
Winds 4 kts (2.1 m/s, 4.6 mph) Southwest (230°)
Visibility6 mi. (9.7 km)
Clouds Few clouds 600 ft. (183 m)
Ceiling: Overcast 8,000 ft. (2,438 m)
Altimeter30.26 in.Hg (1025 mB)
Relative humidity96 %
Density altitude-1,108 ft. (-338 m)
Remarks Fully automated report
Automated weather observing station with precipitation discriminator
Present weather sensor not operating
Flight conditions Visual Meteorological Conditions
Raw dataKFRG 250343Z AUTO 23004KT 6SM BR FEW006 OVC080 08/07 A3026 RMK AO2 T00780072 PWINO
An error has occurred. This application may no longer respond until reloaded. Reload 🗙